sensor_id;sensor_type;location;lat;lon;timestamp;P1;durP1;ratioP1;P2;durP2;ratioP2
76850;SDS011;65824;43.726;20.692;2023-11-19T00:02:25;5.93;;;2.95;;
76850;SDS011;65824;43.726;20.692;2023-11-19T00:04:51;5.88;;;2.95;;
76850;SDS011;65824;43.726;20.692;2023-11-19T00:07:18;6.00;;;3.38;;
76850;SDS011;65824;43.726;20.692;2023-11-19T00:09:46;7.00;;;2.83;;
76850;SDS011;65824;43.726;20.692;2023-11-19T00:12:12;5.38;;;2.88;;
76850;SDS011;65824;43.726;20.692;2023-11-19T00:14:38;5.47;;;3.10;;
76850;SDS011;65824;43.726;20.692;2023-11-19T00:17:03;5.80;;;2.97;;
76850;SDS011;65824;43.726;20.692;2023-11-19T00:19:29;5.50;;;2.70;;
76850;SDS011;65824;43.726;20.692;2023-11-19T00:21:54;5.93;;;2.90;;
76850;SDS011;65824;43.726;20.692;2023-11-19T00:24:20;6.07;;;2.92;;
76850;SDS011;65824;43.726;20.692;2023-11-19T00:26:46;6.80;;;3.03;;
76850;SDS011;65824;43.726;20.692;2023-11-19T00:29:11;5.18;;;2.50;;
76850;SDS011;65824;43.726;20.692;2023-11-19T00:31:38;5.30;;;2.72;;
76850;SDS011;65824;43.726;20.692;2023-11-19T00:34:04;5.45;;;2.75;;
76850;SDS011;65824;43.726;20.692;2023-11-19T00:36:31;5.63;;;3.00;;
76850;SDS011;65824;43.726;20.692;2023-11-19T00:38:56;6.05;;;3.10;;
76850;SDS011;65824;43.726;20.692;2023-11-19T00:41:23;6.10;;;2.58;;
76850;SDS011;65824;43.726;20.692;2023-11-19T00:43:50;5.88;;;3.10;;
76850;SDS011;65824;43.726;20.692;2023-11-19T00:46:16;5.75;;;3.00;;
76850;SDS011;65824;43.726;20.692;2023-11-19T00:48:41;6.82;;;2.97;;
76850;SDS011;65824;43.726;20.692;2023-11-19T00:51:07;5.35;;;2.72;;
76850;SDS011;65824;43.726;20.692;2023-11-19T00:53:33;5.50;;;2.75;;
76850;SDS011;65824;43.726;20.692;2023-11-19T00:56:01;5.18;;;2.90;;
76850;SDS011;65824;43.726;20.692;2023-11-19T00:58:27;6.35;;;2.80;;
76850;SDS011;65824;43.726;20.692;2023-11-19T01:00:52;6.35;;;3.00;;
76850;SDS011;65824;43.726;20.692;2023-11-19T01:03:18;5.60;;;2.90;;
76850;SDS011;65824;43.726;20.692;2023-11-19T01:05:44;7.22;;;3.78;;
76850;SDS011;65824;43.726;20.692;2023-11-19T01:08:11;5.85;;;3.03;;
76850;SDS011;65824;43.726;20.692;2023-11-19T01:10:39;5.55;;;3.08;;
76850;SDS011;65824;43.726;20.692;2023-11-19T01:13:05;5.30;;;2.58;;
76850;SDS011;65824;43.726;20.692;2023-11-19T01:15:33;6.05;;;2.65;;
76850;SDS011;65824;43.726;20.692;2023-11-19T01:17:59;5.53;;;2.42;;
76850;SDS011;65824;43.726;20.692;2023-11-19T01:20:27;5.35;;;2.60;;
76850;SDS011;65824;43.726;20.692;2023-11-19T01:22:52;4.65;;;2.42;;
76850;SDS011;65824;43.726;20.692;2023-11-19T01:25:19;5.60;;;2.80;;
76850;SDS011;65824;43.726;20.692;2023-11-19T01:27:44;5.32;;;2.72;;
76850;SDS011;65824;43.726;20.692;2023-11-19T01:30:10;6.25;;;2.70;;
76850;SDS011;65824;43.726;20.692;2023-11-19T01:32:38;5.07;;;2.33;;
76850;SDS011;65824;43.726;20.692;2023-11-19T01:35:06;5.15;;;2.60;;
76850;SDS011;65824;43.726;20.692;2023-11-19T01:37:33;5.25;;;2.63;;
76850;SDS011;65824;43.726;20.692;2023-11-19T01:39:59;4.90;;;2.60;;
76850;SDS011;65824;43.726;20.692;2023-11-19T01:42:25;5.60;;;2.58;;
76850;SDS011;65824;43.726;20.692;2023-11-19T01:44:58;5.15;;;2.45;;
76850;SDS011;65824;43.726;20.692;2023-11-19T01:47:25;6.82;;;2.50;;
76850;SDS011;65824;43.726;20.692;2023-11-19T01:49:51;5.72;;;2.83;;
76850;SDS011;65824;43.726;20.692;2023-11-19T01:52:17;4.68;;;2.63;;
76850;SDS011;65824;43.726;20.692;2023-11-19T01:54:43;5.07;;;2.70;;
76850;SDS011;65824;43.726;20.692;2023-11-19T01:57:11;6.20;;;2.60;;
76850;SDS011;65824;43.726;20.692;2023-11-19T01:59:37;5.80;;;2.45;;
76850;SDS011;65824;43.726;20.692;2023-11-19T02:02:05;7.20;;;2.92;;
76850;SDS011;65824;43.726;20.692;2023-11-19T02:04:31;6.85;;;3.13;;
76850;SDS011;65824;43.726;20.692;2023-11-19T02:06:57;4.90;;;2.33;;
76850;SDS011;65824;43.726;20.692;2023-11-19T02:09:23;6.30;;;2.63;;
76850;SDS011;65824;43.726;20.692;2023-11-19T02:11:49;5.35;;;2.75;;
76850;SDS011;65824;43.726;20.692;2023-11-19T02:14:16;5.65;;;2.47;;
76850;SDS011;65824;43.726;20.692;2023-11-19T02:16:42;4.90;;;2.50;;
76850;SDS011;65824;43.726;20.692;2023-11-19T02:19:08;4.93;;;2.47;;
76850;SDS011;65824;43.726;20.692;2023-11-19T02:21:35;5.38;;;2.42;;
76850;SDS011;65824;43.726;20.692;2023-11-19T02:24:02;5.13;;;2.38;;
76850;SDS011;65824;43.726;20.692;2023-11-19T02:26:48;5.93;;;2.50;;
76850;SDS011;65824;43.726;20.692;2023-11-19T02:29:17;5.20;;;2.53;;
76850;SDS011;65824;43.726;20.692;2023-11-19T02:31:44;5.88;;;2.75;;
76850;SDS011;65824;43.726;20.692;2023-11-19T02:34:10;4.90;;;2.60;;
76850;SDS011;65824;43.726;20.692;2023-11-19T02:36:37;5.75;;;2.53;;
76850;SDS011;65824;43.726;20.692;2023-11-19T02:39:03;5.90;;;2.60;;
76850;SDS011;65824;43.726;20.692;2023-11-19T02:41:33;5.82;;;2.80;;
76850;SDS011;65824;43.726;20.692;2023-11-19T02:43:58;6.30;;;3.10;;
76850;SDS011;65824;43.726;20.692;2023-11-19T02:46:24;4.97;;;2.50;;
76850;SDS011;65824;43.726;20.692;2023-11-19T02:48:49;6.43;;;2.80;;
76850;SDS011;65824;43.726;20.692;2023-11-19T02:51:15;7.55;;;2.92;;
76850;SDS011;65824;43.726;20.692;2023-11-19T02:53:43;5.95;;;3.13;;
76850;SDS011;65824;43.726;20.692;2023-11-19T02:56:13;7.00;;;2.90;;
76850;SDS011;65824;43.726;20.692;2023-11-19T02:58:51;5.25;;;2.65;;
76850;SDS011;65824;43.726;20.692;2023-11-19T03:01:24;6.85;;;2.70;;
76850;SDS011;65824;43.726;20.692;2023-11-19T03:04:01;5.18;;;2.58;;
76850;SDS011;65824;43.726;20.692;2023-11-19T03:06:27;4.35;;;2.40;;
76850;SDS011;65824;43.726;20.692;2023-11-19T03:08:54;6.15;;;2.63;;
76850;SDS011;65824;43.726;20.692;2023-11-19T03:11:21;5.35;;;2.80;;
76850;SDS011;65824;43.726;20.692;2023-11-19T03:13:47;6.75;;;2.90;;
76850;SDS011;65824;43.726;20.692;2023-11-19T03:16:12;4.60;;;2.42;;
76850;SDS011;65824;43.726;20.692;2023-11-19T03:18:38;5.80;;;2.63;;
76850;SDS011;65824;43.726;20.692;2023-11-19T03:21:07;5.82;;;2.50;;
76850;SDS011;65824;43.726;20.692;2023-11-19T03:23:33;5.40;;;2.60;;
76850;SDS011;65824;43.726;20.692;2023-11-19T03:25:59;6.05;;;2.60;;
76850;SDS011;65824;43.726;20.692;2023-11-19T03:28:28;5.30;;;2.33;;
76850;SDS011;65824;43.726;20.692;2023-11-19T03:30:53;5.10;;;2.38;;
76850;SDS011;65824;43.726;20.692;2023-11-19T03:33:19;7.30;;;2.80;;
76850;SDS011;65824;43.726;20.692;2023-11-19T03:35:44;5.10;;;2.40;;
76850;SDS011;65824;43.726;20.692;2023-11-19T03:38:11;4.90;;;2.50;;
76850;SDS011;65824;43.726;20.692;2023-11-19T03:40:36;5.13;;;2.50;;
76850;SDS011;65824;43.726;20.692;2023-11-19T03:43:02;5.28;;;2.80;;
76850;SDS011;65824;43.726;20.692;2023-11-19T03:45:30;5.47;;;3.00;;
76850;SDS011;65824;43.726;20.692;2023-11-19T03:47:57;6.70;;;3.20;;
76850;SDS011;65824;43.726;20.692;2023-11-19T03:50:22;8.48;;;2.92;;
76850;SDS011;65824;43.726;20.692;2023-11-19T03:52:49;5.78;;;2.78;;
76850;SDS011;65824;43.726;20.692;2023-11-19T03:55:15;5.75;;;2.95;;
76850;SDS011;65824;43.726;20.692;2023-11-19T03:57:40;6.15;;;3.10;;
76850;SDS011;65824;43.726;20.692;2023-11-19T04:00:06;6.75;;;3.03;;
76850;SDS011;65824;43.726;20.692;2023-11-19T04:02:35;5.35;;;2.88;;
76850;SDS011;65824;43.726;20.692;2023-11-19T04:05:03;5.18;;;2.65;;
76850;SDS011;65824;43.726;20.692;2023-11-19T04:07:30;6.75;;;2.70;;
76850;SDS011;65824;43.726;20.692;2023-11-19T04:09:56;5.75;;;2.97;;
76850;SDS011;65824;43.726;20.692;2023-11-19T04:12:22;6.32;;;3.00;;
76850;SDS011;65824;43.726;20.692;2023-11-19T04:14:47;6.22;;;3.17;;
76850;SDS011;65824;43.726;20.692;2023-11-19T04:17:13;8.02;;;3.13;;
76850;SDS011;65824;43.726;20.692;2023-11-19T04:19:38;9.07;;;4.03;;
76850;SDS011;65824;43.726;20.692;2023-11-19T04:22:07;13.38;;;4.90;;
76850;SDS011;65824;43.726;20.692;2023-11-19T04:24:33;12.02;;;4.90;;
76850;SDS011;65824;43.726;20.692;2023-11-19T04:26:59;9.65;;;3.63;;
76850;SDS011;65824;43.726;20.692;2023-11-19T04:29:25;11.50;;;4.30;;
76850;SDS011;65824;43.726;20.692;2023-11-19T04:31:50;10.88;;;4.20;;
76850;SDS011;65824;43.726;20.692;2023-11-19T04:34:16;9.80;;;4.00;;
76850;SDS011;65824;43.726;20.692;2023-11-19T04:36:41;9.25;;;3.55;;
76850;SDS011;65824;43.726;20.692;2023-11-19T04:39:08;8.80;;;3.50;;
76850;SDS011;65824;43.726;20.692;2023-11-19T04:41:47;8.18;;;3.40;;
76850;SDS011;65824;43.726;20.692;2023-11-19T04:44:19;8.15;;;3.10;;
76850;SDS011;65824;43.726;20.692;2023-11-19T04:46:44;7.13;;;3.50;;
76850;SDS011;65824;43.726;20.692;2023-11-19T04:49:10;7.75;;;3.30;;
76850;SDS011;65824;43.726;20.692;2023-11-19T04:51:42;8.93;;;3.30;;
76850;SDS011;65824;43.726;20.692;2023-11-19T04:54:12;8.25;;;3.38;;
76850;SDS011;65824;43.726;20.692;2023-11-19T04:56:37;9.90;;;3.95;;
76850;SDS011;65824;43.726;20.692;2023-11-19T04:59:03;6.88;;;3.28;;
76850;SDS011;65824;43.726;20.692;2023-11-19T05:01:30;7.50;;;3.50;;
76850;SDS011;65824;43.726;20.692;2023-11-19T05:04:00;8.13;;;3.50;;
76850;SDS011;65824;43.726;20.692;2023-11-19T05:06:26;7.10;;;3.22;;
76850;SDS011;65824;43.726;20.692;2023-11-19T05:08:55;7.15;;;3.45;;
76850;SDS011;65824;43.726;20.692;2023-11-19T05:11:21;7.32;;;3.65;;
76850;SDS011;65824;43.726;20.692;2023-11-19T05:13:46;7.07;;;3.25;;
76850;SDS011;65824;43.726;20.692;2023-11-19T05:16:12;6.22;;;3.22;;
76850;SDS011;65824;43.726;20.692;2023-11-19T05:18:39;6.80;;;3.22;;
76850;SDS011;65824;43.726;20.692;2023-11-19T05:21:05;5.72;;;3.03;;
76850;SDS011;65824;43.726;20.692;2023-11-19T05:23:32;5.75;;;2.97;;
76850;SDS011;65824;43.726;20.692;2023-11-19T05:26:00;6.75;;;3.33;;
76850;SDS011;65824;43.726;20.692;2023-11-19T05:28:26;5.22;;;2.80;;
76850;SDS011;65824;43.726;20.692;2023-11-19T05:30:52;5.63;;;3.15;;
76850;SDS011;65824;43.726;20.692;2023-11-19T05:33:17;6.57;;;3.30;;
76850;SDS011;65824;43.726;20.692;2023-11-19T05:35:44;5.88;;;3.20;;
76850;SDS011;65824;43.726;20.692;2023-11-19T05:38:09;9.60;;;3.53;;
76850;SDS011;65824;43.726;20.692;2023-11-19T05:40:35;6.80;;;3.67;;
76850;SDS011;65824;43.726;20.692;2023-11-19T05:43:01;7.85;;;3.30;;
76850;SDS011;65824;43.726;20.692;2023-11-19T05:45:27;7.82;;;3.75;;
76850;SDS011;65824;43.726;20.692;2023-11-19T05:47:52;8.80;;;3.80;;
76850;SDS011;65824;43.726;20.692;2023-11-19T05:50:18;8.10;;;3.72;;
76850;SDS011;65824;43.726;20.692;2023-11-19T05:52:44;9.95;;;4.15;;
76850;SDS011;65824;43.726;20.692;2023-11-19T05:55:09;9.18;;;4.40;;
76850;SDS011;65824;43.726;20.692;2023-11-19T05:57:36;9.02;;;4.50;;
76850;SDS011;65824;43.726;20.692;2023-11-19T06:00:03;10.20;;;4.90;;
76850;SDS011;65824;43.726;20.692;2023-11-19T06:02:32;9.48;;;4.93;;
76850;SDS011;65824;43.726;20.692;2023-11-19T06:04:58;12.23;;;5.57;;
76850;SDS011;65824;43.726;20.692;2023-11-19T06:07:23;8.88;;;5.32;;
76850;SDS011;65824;43.726;20.692;2023-11-19T06:09:51;9.68;;;4.97;;
76850;SDS011;65824;43.726;20.692;2023-11-19T06:12:17;10.02;;;5.43;;
76850;SDS011;65824;43.726;20.692;2023-11-19T06:14:42;9.40;;;4.80;;
76850;SDS011;65824;43.726;20.692;2023-11-19T06:17:07;9.18;;;4.72;;
76850;SDS011;65824;43.726;20.692;2023-11-19T06:19:37;9.20;;;4.93;;
76850;SDS011;65824;43.726;20.692;2023-11-19T06:22:06;10.30;;;5.53;;
76850;SDS011;65824;43.726;20.692;2023-11-19T06:24:32;13.07;;;5.57;;
76850;SDS011;65824;43.726;20.692;2023-11-19T06:26:58;8.52;;;4.60;;
76850;SDS011;65824;43.726;20.692;2023-11-19T06:29:23;8.90;;;4.72;;
76850;SDS011;65824;43.726;20.692;2023-11-19T06:31:49;10.07;;;4.43;;
76850;SDS011;65824;43.726;20.692;2023-11-19T06:34:16;7.80;;;4.25;;
76850;SDS011;65824;43.726;20.692;2023-11-19T06:36:41;11.40;;;4.72;;
76850;SDS011;65824;43.726;20.692;2023-11-19T06:39:08;9.82;;;4.60;;
76850;SDS011;65824;43.726;20.692;2023-11-19T06:41:34;9.35;;;4.65;;
76850;SDS011;65824;43.726;20.692;2023-11-19T06:44:02;10.88;;;5.25;;
76850;SDS011;65824;43.726;20.692;2023-11-19T06:46:29;8.68;;;4.60;;
76850;SDS011;65824;43.726;20.692;2023-11-19T06:48:56;11.23;;;4.57;;
76850;SDS011;65824;43.726;20.692;2023-11-19T06:51:22;9.48;;;5.00;;
76850;SDS011;65824;43.726;20.692;2023-11-19T06:53:49;9.88;;;5.38;;
76850;SDS011;65824;43.726;20.692;2023-11-19T06:56:21;11.52;;;5.90;;
76850;SDS011;65824;43.726;20.692;2023-11-19T06:58:47;12.05;;;6.40;;
76850;SDS011;65824;43.726;20.692;2023-11-19T07:01:15;11.30;;;5.65;;
76850;SDS011;65824;43.726;20.692;2023-11-19T07:03:46;10.38;;;5.70;;
76850;SDS011;65824;43.726;20.692;2023-11-19T07:06:12;11.55;;;5.68;;
76850;SDS011;65824;43.726;20.692;2023-11-19T07:08:43;11.38;;;5.40;;
76850;SDS011;65824;43.726;20.692;2023-11-19T07:11:12;9.18;;;5.30;;
76850;SDS011;65824;43.726;20.692;2023-11-19T07:13:42;12.38;;;5.05;;
76850;SDS011;65824;43.726;20.692;2023-11-19T07:16:07;13.82;;;5.07;;
76850;SDS011;65824;43.726;20.692;2023-11-19T07:18:35;11.05;;;5.78;;
76850;SDS011;65824;43.726;20.692;2023-11-19T07:21:00;12.25;;;6.15;;
76850;SDS011;65824;43.726;20.692;2023-11-19T07:23:28;13.45;;;5.65;;
76850;SDS011;65824;43.726;20.692;2023-11-19T07:25:53;13.02;;;6.45;;
76850;SDS011;65824;43.726;20.692;2023-11-19T07:28:19;9.77;;;5.80;;
76850;SDS011;65824;43.726;20.692;2023-11-19T07:30:45;10.50;;;5.72;;
76850;SDS011;65824;43.726;20.692;2023-11-19T07:33:11;9.40;;;5.20;;
76850;SDS011;65824;43.726;20.692;2023-11-19T07:35:39;8.18;;;5.00;;
76850;SDS011;65824;43.726;20.692;2023-11-19T07:38:07;7.70;;;4.45;;
76850;SDS011;65824;43.726;20.692;2023-11-19T07:40:33;9.32;;;4.78;;
76850;SDS011;65824;43.726;20.692;2023-11-19T07:42:59;10.05;;;5.00;;
76850;SDS011;65824;43.726;20.692;2023-11-19T07:45:24;11.27;;;4.60;;
76850;SDS011;65824;43.726;20.692;2023-11-19T07:47:50;8.93;;;5.00;;
76850;SDS011;65824;43.726;20.692;2023-11-19T07:50:16;6.45;;;3.80;;
76850;SDS011;65824;43.726;20.692;2023-11-19T07:52:44;9.05;;;4.30;;
76850;SDS011;65824;43.726;20.692;2023-11-19T07:55:09;9.57;;;4.75;;
76850;SDS011;65824;43.726;20.692;2023-11-19T07:57:35;8.63;;;4.80;;
76850;SDS011;65824;43.726;20.692;2023-11-19T08:00:01;8.23;;;4.90;;
76850;SDS011;65824;43.726;20.692;2023-11-19T08:02:28;8.27;;;4.50;;
76850;SDS011;65824;43.726;20.692;2023-11-19T08:04:53;10.00;;;5.15;;
76850;SDS011;65824;43.726;20.692;2023-11-19T08:07:23;7.35;;;3.90;;
76850;SDS011;65824;43.726;20.692;2023-11-19T08:09:49;7.07;;;3.88;;
76850;SDS011;65824;43.726;20.692;2023-11-19T08:12:15;7.45;;;3.60;;
76850;SDS011;65824;43.726;20.692;2023-11-19T08:14:42;6.40;;;3.05;;
76850;SDS011;65824;43.726;20.692;2023-11-19T08:17:09;7.32;;;3.55;;
76850;SDS011;65824;43.726;20.692;2023-11-19T08:19:34;7.30;;;3.10;;
76850;SDS011;65824;43.726;20.692;2023-11-19T08:22:00;7.50;;;4.00;;
76850;SDS011;65824;43.726;20.692;2023-11-19T08:24:25;6.95;;;3.72;;
76850;SDS011;65824;43.726;20.692;2023-11-19T08:26:51;9.60;;;3.90;;
76850;SDS011;65824;43.726;20.692;2023-11-19T08:29:16;7.25;;;4.18;;
76850;SDS011;65824;43.726;20.692;2023-11-19T08:31:42;8.40;;;4.45;;
76850;SDS011;65824;43.726;20.692;2023-11-19T08:34:08;10.52;;;4.60;;
76850;SDS011;65824;43.726;20.692;2023-11-19T08:36:34;9.65;;;4.82;;
76850;SDS011;65824;43.726;20.692;2023-11-19T08:39:01;9.50;;;4.78;;
76850;SDS011;65824;43.726;20.692;2023-11-19T08:41:28;6.70;;;3.80;;
76850;SDS011;65824;43.726;20.692;2023-11-19T08:43:54;6.32;;;3.50;;
76850;SDS011;65824;43.726;20.692;2023-11-19T08:46:19;6.78;;;3.65;;
76850;SDS011;65824;43.726;20.692;2023-11-19T08:48:45;7.90;;;4.00;;
76850;SDS011;65824;43.726;20.692;2023-11-19T08:51:11;6.15;;;3.70;;
76850;SDS011;65824;43.726;20.692;2023-11-19T08:53:37;8.18;;;4.22;;
76850;SDS011;65824;43.726;20.692;2023-11-19T08:56:03;6.93;;;3.72;;
76850;SDS011;65824;43.726;20.692;2023-11-19T08:58:30;5.97;;;2.90;;
76850;SDS011;65824;43.726;20.692;2023-11-19T09:00:56;5.80;;;2.97;;
76850;SDS011;65824;43.726;20.692;2023-11-19T09:03:22;5.70;;;3.05;;
76850;SDS011;65824;43.726;20.692;2023-11-19T09:05:49;5.57;;;2.60;;
76850;SDS011;65824;43.726;20.692;2023-11-19T09:08:14;5.82;;;3.08;;
76850;SDS011;65824;43.726;20.692;2023-11-19T09:10:40;7.30;;;3.28;;
76850;SDS011;65824;43.726;20.692;2023-11-19T09:13:05;5.97;;;3.13;;
76850;SDS011;65824;43.726;20.692;2023-11-19T09:15:30;9.30;;;2.80;;
76850;SDS011;65824;43.726;20.692;2023-11-19T09:17:56;6.97;;;3.00;;
76850;SDS011;65824;43.726;20.692;2023-11-19T09:20:22;6.32;;;3.13;;
76850;SDS011;65824;43.726;20.692;2023-11-19T09:22:47;5.35;;;2.92;;
76850;SDS011;65824;43.726;20.692;2023-11-19T09:25:16;5.63;;;3.17;;
76850;SDS011;65824;43.726;20.692;2023-11-19T09:27:42;6.97;;;3.35;;
76850;SDS011;65824;43.726;20.692;2023-11-19T09:30:08;5.90;;;3.03;;
76850;SDS011;65824;43.726;20.692;2023-11-19T09:32:34;7.65;;;3.53;;
76850;SDS011;65824;43.726;20.692;2023-11-19T09:35:01;6.85;;;3.50;;
76850;SDS011;65824;43.726;20.692;2023-11-19T09:37:28;7.80;;;3.65;;
76850;SDS011;65824;43.726;20.692;2023-11-19T09:39:53;7.22;;;3.17;;
76850;SDS011;65824;43.726;20.692;2023-11-19T09:42:20;5.75;;;2.95;;
76850;SDS011;65824;43.726;20.692;2023-11-19T09:44:46;6.82;;;3.47;;
76850;SDS011;65824;43.726;20.692;2023-11-19T09:47:16;6.57;;;3.67;;
76850;SDS011;65824;43.726;20.692;2023-11-19T09:49:42;6.18;;;3.17;;
76850;SDS011;65824;43.726;20.692;2023-11-19T09:52:08;7.00;;;3.40;;
76850;SDS011;65824;43.726;20.692;2023-11-19T09:54:34;7.30;;;3.72;;
76850;SDS011;65824;43.726;20.692;2023-11-19T09:57:00;6.20;;;3.15;;
76850;SDS011;65824;43.726;20.692;2023-11-19T09:59:29;6.32;;;3.35;;
76850;SDS011;65824;43.726;20.692;2023-11-19T10:01:56;8.63;;;3.38;;
76850;SDS011;65824;43.726;20.692;2023-11-19T10:04:23;8.35;;;3.83;;
76850;SDS011;65824;43.726;20.692;2023-11-19T10:06:52;8.68;;;4.00;;
76850;SDS011;65824;43.726;20.692;2023-11-19T10:09:18;6.28;;;3.20;;
76850;SDS011;65824;43.726;20.692;2023-11-19T10:11:45;7.43;;;3.75;;
76850;SDS011;65824;43.726;20.692;2023-11-19T10:14:10;5.80;;;3.03;;
76850;SDS011;65824;43.726;20.692;2023-11-19T10:16:36;6.30;;;3.03;;
76850;SDS011;65824;43.726;20.692;2023-11-19T10:19:03;6.30;;;3.60;;
76850;SDS011;65824;43.726;20.692;2023-11-19T10:21:28;6.22;;;2.60;;
76850;SDS011;65824;43.726;20.692;2023-11-19T10:24:01;5.72;;;2.83;;
76850;SDS011;65824;43.726;20.692;2023-11-19T10:26:26;6.35;;;3.22;;
76850;SDS011;65824;43.726;20.692;2023-11-19T10:28:52;8.52;;;3.78;;
76850;SDS011;65824;43.726;20.692;2023-11-19T10:31:19;7.25;;;3.70;;
76850;SDS011;65824;43.726;20.692;2023-11-19T10:33:49;4.80;;;2.63;;
76850;SDS011;65824;43.726;20.692;2023-11-19T10:36:15;5.75;;;2.80;;
76850;SDS011;65824;43.726;20.692;2023-11-19T10:38:41;6.25;;;3.10;;
76850;SDS011;65824;43.726;20.692;2023-11-19T10:41:29;5.95;;;3.10;;
76850;SDS011;65824;43.726;20.692;2023-11-19T10:43:57;7.40;;;3.20;;
76850;SDS011;65824;43.726;20.692;2023-11-19T10:46:23;6.82;;;2.97;;
76850;SDS011;65824;43.726;20.692;2023-11-19T10:49:05;5.95;;;2.88;;
76850;SDS011;65824;43.726;20.692;2023-11-19T10:51:34;6.95;;;2.85;;
76850;SDS011;65824;43.726;20.692;2023-11-19T10:54:04;6.43;;;3.10;;
76850;SDS011;65824;43.726;20.692;2023-11-19T10:56:34;8.55;;;3.55;;
76850;SDS011;65824;43.726;20.692;2023-11-19T10:59:00;6.50;;;2.78;;
76850;SDS011;65824;43.726;20.692;2023-11-19T11:01:34;5.15;;;2.53;;
76850;SDS011;65824;43.726;20.692;2023-11-19T11:04:19;7.03;;;2.88;;
76850;SDS011;65824;43.726;20.692;2023-11-19T11:06:48;5.55;;;2.78;;
76850;SDS011;65824;43.726;20.692;2023-11-19T11:09:16;6.28;;;3.30;;
76850;SDS011;65824;43.726;20.692;2023-11-19T11:11:45;8.43;;;3.65;;
76850;SDS011;65824;43.726;20.692;2023-11-19T11:14:14;7.13;;;4.05;;
76850;SDS011;65824;43.726;20.692;2023-11-19T11:16:44;6.95;;;3.55;;
76850;SDS011;65824;43.726;20.692;2023-11-19T11:19:11;7.72;;;3.97;;
76850;SDS011;65824;43.726;20.692;2023-11-19T11:21:40;7.07;;;3.67;;
76850;SDS011;65824;43.726;20.692;2023-11-19T11:29:37;11.07;;;3.00;;
76850;SDS011;65824;43.726;20.692;2023-11-19T11:37:36;6.43;;;3.17;;
76850;SDS011;65824;43.726;20.692;2023-11-19T11:40:15;5.22;;;2.78;;
76850;SDS011;65824;43.726;20.692;2023-11-19T11:42:43;6.30;;;3.08;;
76850;SDS011;65824;43.726;20.692;2023-11-19T11:45:13;4.82;;;2.33;;
76850;SDS011;65824;43.726;20.692;2023-11-19T11:55:27;12.27;;;5.25;;
76850;SDS011;65824;43.726;20.692;2023-11-19T11:57:53;8.35;;;3.83;;
76850;SDS011;65824;43.726;20.692;2023-11-19T12:00:26;12.45;;;4.43;;
76850;SDS011;65824;43.726;20.692;2023-11-19T12:02:55;6.93;;;3.33;;
76850;SDS011;65824;43.726;20.692;2023-11-19T12:05:23;12.95;;;3.70;;
76850;SDS011;65824;43.726;20.692;2023-11-19T12:07:55;6.28;;;3.60;;
76850;SDS011;65824;43.726;20.692;2023-11-19T12:10:31;6.72;;;3.28;;
76850;SDS011;65824;43.726;20.692;2023-11-19T12:13:12;7.25;;;2.72;;
76850;SDS011;65824;43.726;20.692;2023-11-19T12:16:11;6.50;;;2.92;;
76850;SDS011;65824;43.726;20.692;2023-11-19T12:18:32;7.03;;;2.40;;
76850;SDS011;65824;43.726;20.692;2023-11-19T12:20:58;4.80;;;2.63;;
76850;SDS011;65824;43.726;20.692;2023-11-19T12:23:34;4.13;;;2.28;;
76850;SDS011;65824;43.726;20.692;2023-11-19T12:26:00;5.68;;;2.42;;
76850;SDS011;65824;43.726;20.692;2023-11-19T12:28:26;6.10;;;2.60;;
76850;SDS011;65824;43.726;20.692;2023-11-19T12:30:51;5.97;;;2.90;;
76850;SDS011;65824;43.726;20.692;2023-11-19T12:33:18;6.65;;;2.78;;
76850;SDS011;65824;43.726;20.692;2023-11-19T12:35:45;4.85;;;2.42;;
76850;SDS011;65824;43.726;20.692;2023-11-19T12:38:18;5.82;;;2.88;;
76850;SDS011;65824;43.726;20.692;2023-11-19T12:41:09;7.88;;;2.83;;
76850;SDS011;65824;43.726;20.692;2023-11-19T12:43:38;5.70;;;2.53;;
76850;SDS011;65824;43.726;20.692;2023-11-19T12:46:21;7.20;;;3.83;;
76850;SDS011;65824;43.726;20.692;2023-11-19T12:48:48;7.55;;;3.83;;
76850;SDS011;65824;43.726;20.692;2023-11-19T12:51:14;8.48;;;4.10;;
76850;SDS011;65824;43.726;20.692;2023-11-19T12:53:51;7.40;;;3.03;;
76850;SDS011;65824;43.726;20.692;2023-11-19T12:56:20;5.07;;;2.70;;
76850;SDS011;65824;43.726;20.692;2023-11-19T12:58:50;5.63;;;2.60;;
76850;SDS011;65824;43.726;20.692;2023-11-19T13:01:19;6.13;;;2.90;;
76850;SDS011;65824;43.726;20.692;2023-11-19T13:03:45;7.35;;;2.92;;
76850;SDS011;65824;43.726;20.692;2023-11-19T13:06:12;18.42;;;9.45;;
76850;SDS011;65824;43.726;20.692;2023-11-19T13:08:44;6.55;;;3.15;;
76850;SDS011;65824;43.726;20.692;2023-11-19T13:11:12;6.65;;;2.80;;
76850;SDS011;65824;43.726;20.692;2023-11-19T13:16:24;7.35;;;4.10;;
76850;SDS011;65824;43.726;20.692;2023-11-19T13:18:50;8.38;;;3.40;;
76850;SDS011;65824;43.726;20.692;2023-11-19T13:21:16;5.65;;;3.53;;
76850;SDS011;65824;43.726;20.692;2023-11-19T13:23:44;5.28;;;2.63;;
76850;SDS011;65824;43.726;20.692;2023-11-19T13:26:10;5.38;;;3.10;;
76850;SDS011;65824;43.726;20.692;2023-11-19T13:28:37;6.82;;;3.10;;
76850;SDS011;65824;43.726;20.692;2023-11-19T13:31:03;6.80;;;3.53;;
76850;SDS011;65824;43.726;20.692;2023-11-19T13:33:29;6.35;;;3.67;;
76850;SDS011;65824;43.726;20.692;2023-11-19T13:35:55;7.00;;;3.53;;
76850;SDS011;65824;43.726;20.692;2023-11-19T13:38:21;12.05;;;7.30;;
76850;SDS011;65824;43.726;20.692;2023-11-19T13:40:48;15.57;;;9.02;;
76850;SDS011;65824;43.726;20.692;2023-11-19T13:43:13;9.23;;;5.70;;
76850;SDS011;65824;43.726;20.692;2023-11-19T13:45:40;8.40;;;4.63;;
76850;SDS011;65824;43.726;20.692;2023-11-19T13:48:05;7.35;;;4.18;;
76850;SDS011;65824;43.726;20.692;2023-11-19T13:50:31;25.73;;;10.63;;
76850;SDS011;65824;43.726;20.692;2023-11-19T13:52:57;60.45;;;22.23;;
76850;SDS011;65824;43.726;20.692;2023-11-19T13:55:22;15.30;;;6.25;;
76850;SDS011;65824;43.726;20.692;2023-11-19T13:57:48;8.88;;;4.75;;
76850;SDS011;65824;43.726;20.692;2023-11-19T14:00:14;8.65;;;3.35;;
76850;SDS011;65824;43.726;20.692;2023-11-19T14:02:47;7.55;;;4.13;;
76850;SDS011;65824;43.726;20.692;2023-11-19T14:05:13;26.02;;;11.95;;
76850;SDS011;65824;43.726;20.692;2023-11-19T14:07:40;13.10;;;6.85;;
76850;SDS011;65824;43.726;20.692;2023-11-19T14:10:06;13.23;;;6.80;;
76850;SDS011;65824;43.726;20.692;2023-11-19T14:12:34;11.15;;;6.85;;
76850;SDS011;65824;43.726;20.692;2023-11-19T14:15:01;13.98;;;8.18;;
76850;SDS011;65824;43.726;20.692;2023-11-19T14:17:26;15.43;;;7.88;;
76850;SDS011;65824;43.726;20.692;2023-11-19T14:19:52;13.13;;;8.10;;
76850;SDS011;65824;43.726;20.692;2023-11-19T14:22:17;13.88;;;7.55;;
76850;SDS011;65824;43.726;20.692;2023-11-19T14:24:43;23.40;;;12.13;;
76850;SDS011;65824;43.726;20.692;2023-11-19T14:27:09;44.42;;;18.20;;
76850;SDS011;65824;43.726;20.692;2023-11-19T14:29:36;97.20;;;33.53;;
76850;SDS011;65824;43.726;20.692;2023-11-19T14:32:02;23.65;;;11.30;;
76850;SDS011;65824;43.726;20.692;2023-11-19T14:34:31;22.65;;;10.40;;
76850;SDS011;65824;43.726;20.692;2023-11-19T14:36:58;21.77;;;11.85;;
76850;SDS011;65824;43.726;20.692;2023-11-19T14:39:24;17.83;;;9.20;;
76850;SDS011;65824;43.726;20.692;2023-11-19T14:41:51;18.77;;;9.93;;
76850;SDS011;65824;43.726;20.692;2023-11-19T14:44:17;19.23;;;10.45;;
76850;SDS011;65824;43.726;20.692;2023-11-19T14:46:45;21.05;;;10.95;;
76850;SDS011;65824;43.726;20.692;2023-11-19T14:49:11;25.45;;;11.57;;
76850;SDS011;65824;43.726;20.692;2023-11-19T14:51:39;26.13;;;13.25;;
76850;SDS011;65824;43.726;20.692;2023-11-19T14:54:05;25.70;;;14.25;;